Time;durP1;ratioP1;P1;durP2;ratioP2;P2;SDS_P1;SDS_P2;PMS_P1;PMS_P2;Temp;Humidity;BMP_temperature;BMP_pressure;BME280_temperature;BME280_humidity;BME280_pressure;Samples;Min_cycle;Max_cycle;Signal;HPM_P1;HPM_P2
2022/01/18 00:01:30;;;;;;;16.65;2.75;;;;;;;6.45;100.00;103446.56;5114453;27;20051;-71
2022/01/18 00:03:58;;;;;;;11.57;2.78;;;;;;;6.49;100.00;103448.25;5116601;27;20130;-75
2022/01/18 00:06:25;;;;;;;41.80;4.53;;;;;;;6.50;100.00;103443.88;5120808;27;20054;-73
2022/01/18 00:08:51;;;;;;;21.20;4.50;;;;;;;6.51;100.00;103446.47;5127855;27;20095;-74
2022/01/18 00:11:24;;;;;;;18.17;3.40;;;;;;;6.52;99.70;103448.19;5123254;27;20161;-73
2022/01/18 00:13:58;;;;;;;24.38;4.28;;;;;;;6.46;99.54;103461.34;5109320;27;20461;-75
2022/01/18 00:16:28;;;;;;;10.35;3.13;;;;;;;6.50;99.48;103465.66;5108115;27;20540;-74
2022/01/18 00:18:59;;;;;;;4.45;2.08;;;;;;;6.53;99.43;103465.56;5105186;27;20343;-73
2022/01/18 00:21:32;;;;;;;5.30;2.20;;;;;;;6.44;99.24;103455.28;5105582;27;20376;-73
2022/01/18 00:23:59;;;;;;;26.98;3.72;;;;;;;6.47;99.42;103465.69;5107688;27;20039;-74
2022/01/18 00:26:31;;;;;;;15.90;3.72;;;;;;;6.48;99.48;103463.97;5108309;27;20043;-74
2022/01/18 00:29:03;;;;;;;25.80;4.03;;;;;;;6.51;99.45;103469.97;5110138;27;20042;-73
2022/01/18 00:31:45;;;;;;;8.75;3.03;;;;;;;6.53;99.31;103467.31;5106807;27;20289;-72
2022/01/18 00:34:19;;;;;;;18.75;3.60;;;;;;;6.53;99.11;103460.34;5106121;27;20042;-74
2022/01/18 00:36:58;;;;;;;20.95;4.07;;;;;;;6.52;98.89;103466.47;5110011;27;20053;-73
2022/01/18 00:39:24;;;;;;;17.08;2.97;;;;;;;6.51;98.95;103462.16;5113110;27;20043;-74
2022/01/18 00:41:53;;;;;;;12.00;3.38;;;;;;;6.55;98.85;103461.19;5115830;27;20134;-75
2022/01/18 00:44:20;;;;;;;15.98;3.00;;;;;;;6.61;98.89;103470.66;5113057;27;20130;-74
2022/01/18 00:46:48;;;;;;;16.50;3.58;;;;;;;6.66;98.55;103467.06;5113263;27;20112;-74
2022/01/18 00:49:15;;;;;;;10.70;3.38;;;;;;;6.68;98.29;103465.28;5113820;27;20154;-73
2022/01/18 00:51:45;;;;;;;9.63;2.88;;;;;;;6.68;98.23;103467.91;5116883;27;20050;-73
2022/01/18 00:54:20;;;;;;;12.75;3.00;;;;;;;6.65;98.25;103470.56;5106609;27;20056;-72
2022/01/18 00:56:47;;;;;;;6.85;2.45;;;;;;;6.65;98.45;103475.78;5081664;28;20041;-73
2022/01/18 00:59:15;;;;;;;13.35;4.35;;;;;;;6.69;98.35;103482.66;5092787;27;20039;-73
2022/01/18 01:01:42;;;;;;;12.00;2.65;;;;;;;6.69;98.18;103476.59;5104410;27;20048;-73
2022/01/18 01:04:09;;;;;;;18.05;3.30;;;;;;;6.69;98.89;103472.19;5090693;27;20059;-72
2022/01/18 01:06:37;;;;;;;12.25;4.35;;;;;;;6.68;98.21;103464.41;5087973;27;20058;-73
2022/01/18 01:09:05;;;;;;;17.92;2.83;;;;;;;6.67;98.04;103463.56;5078741;27;20059;-72
2022/01/18 01:11:37;;;;;;;13.35;3.55;;;;;;;6.69;98.52;103466.97;5081716;27;20515;-73
2022/01/18 01:14:05;;;;;;;28.58;3.60;;;;;;;6.70;98.37;103466.09;5075729;28;20055;-72
2022/01/18 01:19:41;;;;;;;15.73;4.50;;;;;;;6.68;98.36;103469.63;5068292;28;20057;-74
2022/01/18 01:34:17;;;;;;;7.13;2.85;;;;;;;6.66;99.36;103482.72;5007629;28;20081;-75
2022/01/18 01:37:12;;;;;;;11.43;3.08;;;;;;;6.65;98.86;103483.63;5082112;27;20068;-74
2022/01/18 01:42:42;;;;;;;26.73;4.40;;;;;;;6.66;98.81;103485.34;5026387;27;20106;-72
2022/01/18 01:45:10;;;;;;;18.38;3.75;;;;;;;6.68;98.59;103486.19;5096353;27;20130;-74
2022/01/18 01:47:38;;;;;;;34.85;4.68;;;;;;;6.68;98.52;103486.19;5090474;27;20093;-74
2022/01/18 01:50:15;;;;;;;18.02;4.05;;;;;;;6.65;98.50;103482.75;5092312;27;20036;-72
2022/01/18 01:52:42;;;;;;;7.47;2.65;;;;;;;6.59;98.70;103478.53;5086294;27;20486;-73
2022/01/18 01:55:09;;;;;;;7.10;2.75;;;;;;;6.65;98.77;103486.22;5103713;27;20070;-73
2022/01/18 01:57:36;;;;;;;14.95;3.28;;;;;;;6.66;98.65;103498.41;5089103;27;20136;-73
2022/01/18 02:00:05;;;;;;;14.75;3.63;;;;;;;6.63;98.65;103495.84;5109009;27;20043;-73
2022/01/18 02:02:31;;;;;;;20.70;5.25;;;;;;;6.61;98.80;103492.38;5105375;27;20050;-73
2022/01/18 02:04:58;;;;;;;28.40;4.45;;;;;;;6.60;98.56;103492.44;5108454;27;20058;-72
2022/01/18 02:07:28;;;;;;;18.00;3.70;;;;;;;6.64;98.98;103489.72;5106183;27;20054;-71
2022/01/18 02:09:55;;;;;;;17.50;5.25;;;;;;;6.63;98.74;103488.00;5107477;27;20056;-73
2022/01/18 02:12:22;;;;;;;11.02;3.30;;;;;;;6.66;99.10;103485.34;5076237;27;20040;-73
2022/01/18 02:14:54;;;;;;;29.42;4.90;;;;;;;6.68;98.56;103491.41;5107629;27;20477;-72
2022/01/18 02:22:56;;;;;;;12.18;3.45;;;;;;;6.62;98.69;103486.28;5090667;27;20054;-71
2022/01/18 02:25:23;;;;;;;18.48;4.65;;;;;;;6.58;98.86;103482.03;5108943;27;20046;-76
2022/01/18 02:27:49;;;;;;;27.85;5.55;;;;;;;6.59;98.77;103477.66;5108615;27;20047;-75
2022/01/18 02:30:16;;;;;;;19.65;4.07;;;;;;;6.56;98.82;103480.34;5108469;27;21430;-73
2022/01/18 02:32:43;;;;;;;24.48;4.75;;;;;;;6.60;99.08;103479.38;5109032;27;20067;-72
2022/01/18 02:35:11;;;;;;;29.60;5.90;;;;;;;6.57;99.21;103482.91;5111026;27;20052;-72
2022/01/18 02:37:38;;;;;;;12.35;4.22;;;;;;;6.54;99.11;103480.34;5110794;27;20118;-73
2022/01/18 02:40:06;;;;;;;26.88;3.72;;;;;;;6.55;99.26;103481.22;5115350;27;20047;-74
2022/01/18 02:42:43;;;;;;;14.07;4.63;;;;;;;6.56;99.18;103483.78;5106315;27;20063;-74
2022/01/18 02:45:09;;;;;;;27.55;6.18;;;;;;;6.51;99.35;103479.53;5122162;27;20039;-72
2022/01/18 02:47:36;;;;;;;20.45;5.07;;;;;;;6.51;99.26;103477.81;5132890;27;20027;-74
2022/01/18 02:50:05;;;;;;;51.85;6.05;;;;;;;6.52;99.17;103474.31;5116488;27;20046;-73
2022/01/18 02:52:35;;;;;;;39.78;6.85;;;;;;;6.48;99.49;103475.25;5119739;27;20579;-74
2022/01/18 02:55:01;;;;;;;16.77;4.40;;;;;;;6.49;99.32;103474.38;5102971;27;20302;-73
2022/01/18 02:57:28;;;;;;;15.07;4.65;;;;;;;6.50;99.61;103475.22;5129400;27;20047;-73
2022/01/18 03:00:18;;;;;;;16.67;5.05;;;;;;;6.49;99.54;103469.13;5132002;27;20028;-74
2022/01/18 03:05:29;;;;;;;15.60;4.35;;;;;;;6.49;99.92;103473.47;5113110;27;20054;-72
2022/01/18 03:07:57;;;;;;;23.65;4.25;;;;;;;6.47;99.31;103468.31;5103701;27;20118;-74
2022/01/18 03:10:24;;;;;;;16.92;4.57;;;;;;;6.43;99.60;103477.09;5106337;27;20130;-73
2022/01/18 03:12:50;;;;;;;28.50;6.53;;;;;;;6.44;99.58;103481.41;5104334;27;20139;-73
2022/01/18 03:15:17;;;;;;;23.63;4.40;;;;;;;6.47;99.67;103485.72;5103674;27;20031;-73
2022/01/18 03:17:43;;;;;;;18.02;5.75;;;;;;;6.46;100.00;103481.41;5102847;27;20092;-72
2022/01/18 03:20:13;;;;;;;15.52;4.32;;;;;;;6.49;99.82;103491.75;5102126;27;20058;-73
2022/01/18 03:22:40;;;;;;;22.40;4.93;;;;;;;6.50;99.83;103486.53;5103460;27;20048;-73
2022/01/18 03:25:25;;;;;;;15.57;4.88;;;;;;;6.48;99.91;103488.31;5102261;27;20054;-73
2022/01/18 03:28:08;;;;;;;36.22;5.22;;;;;;;6.49;99.50;103492.66;5103877;27;20672;-74
2022/01/18 03:30:36;;;;;;;27.42;5.55;;;;;;;6.48;99.99;103493.53;5102540;27;20073;-72
2022/01/18 03:33:04;;;;;;;29.63;4.72;;;;;;;6.45;100.00;103488.34;5104102;27;20028;-73
2022/01/18 03:35:31;;;;;;;21.95;5.75;;;;;;;6.48;99.92;103487.47;5102653;27;20050;-73
2022/01/18 03:37:58;;;;;;;39.45;6.57;;;;;;;6.50;100.00;103490.88;5104314;27;20055;-74
2022/01/18 03:40:26;;;;;;;16.48;4.43;;;;;;;6.44;99.91;103480.56;5120722;27;20080;-73
2022/01/18 03:42:55;;;;;;;19.80;5.13;;;;;;;6.48;100.00;103487.47;5107353;27;20047;-73
2022/01/18 03:45:25;;;;;;;20.52;4.85;;;;;;;6.47;100.00;103485.72;5099713;27;20062;-73
2022/01/18 03:47:54;;;;;;;19.25;4.70;;;;;;;6.48;100.00;103487.47;5102396;27;20123;-72
2022/01/18 03:50:21;;;;;;;30.30;6.68;;;;;;;6.51;100.00;103487.38;5102903;27;20043;-73
2022/01/18 03:52:47;;;;;;;28.85;5.72;;;;;;;6.49;100.00;103492.66;5104433;27;20047;-73
2022/01/18 03:55:16;;;;;;;13.30;4.55;;;;;;;6.46;100.00;103500.53;5104109;27;20051;-73
2022/01/18 03:57:44;;;;;;;13.43;4.78;;;;;;;6.37;99.98;103495.47;5102719;27;20067;-73
2022/01/18 04:00:15;;;;;;;9.48;5.10;;;;;;;6.15;100.00;103492.41;5103691;27;20126;-74
2022/01/18 04:02:42;;;;;;;18.88;5.10;;;;;;;6.03;100.00;103492.63;5105110;27;20145;-73
2022/01/18 04:05:09;;;;;;;13.05;5.50;;;;;;;5.91;100.00;103496.28;5106982;27;20039;-73
2022/01/18 04:07:36;;;;;;;16.30;4.00;;;;;;;5.83;99.97;103502.53;5105387;27;20128;-74
2022/01/18 04:10:04;;;;;;;22.80;5.65;;;;;;;5.81;100.00;103506.91;5109137;27;20040;-73
2022/01/18 04:12:31;;;;;;;12.07;4.72;;;;;;;5.74;100.00;103515.69;5112020;27;20039;-74
2022/01/18 04:15:00;;;;;;;17.77;4.68;;;;;;;5.65;100.00;103511.47;5108479;27;20047;-73
2022/01/18 04:17:49;;;;;;;17.30;3.35;;;;;;;5.64;100.00;103508.88;5109568;27;20040;-73
2022/01/18 04:25:54;;;;;;;30.35;5.32;;;;;;;5.88;100.00;103513.72;5088291;27;20047;-73
2022/01/18 04:28:28;;;;;;;21.73;6.85;;;;;;;5.88;100.00;103516.34;5093088;27;20043;-73
2022/01/18 04:30:56;;;;;;;18.33;4.45;;;;;;;5.98;100.00;103510.09;5112443;27;20780;-71
2022/01/18 04:33:23;;;;;;;13.63;3.70;;;;;;;5.99;100.00;103506.59;5109883;27;20130;-73
2022/01/18 04:35:50;;;;;;;18.83;4.68;;;;;;;6.01;100.00;103502.22;5098035;27;20051;-73
2022/01/18 04:38:17;;;;;;;18.65;4.65;;;;;;;6.03;100.00;103503.91;5093552;27;20070;-73
2022/01/18 04:40:45;;;;;;;15.05;4.82;;;;;;;6.05;100.00;103496.06;5108960;27;20051;-74
2022/01/18 04:43:18;;;;;;;17.23;3.67;;;;;;;6.09;100.00;103505.56;5112834;27;20043;-74
2022/01/18 04:48:31;;;;;;;22.70;4.32;;;;;;;6.08;100.00;103496.88;5110101;27;20758;-74
2022/01/18 04:51:00;;;;;;;20.80;4.32;;;;;;;6.09;100.00;103498.59;5115761;27;20063;-73
2022/01/18 04:53:29;;;;;;;17.75;4.65;;;;;;;6.10;100.00;103502.94;5120886;27;20062;-72
2022/01/18 04:55:57;;;;;;;10.90;5.13;;;;;;;6.07;100.00;103499.50;5135488;27;20031;-74
2022/01/18 04:58:24;;;;;;;13.95;5.82;;;;;;;6.02;100.00;103496.13;5125548;27;20039;-73
2022/01/18 05:00:53;;;;;;;21.08;5.43;;;;;;;6.01;100.00;103499.63;5121521;27;20075;-73
2022/01/18 05:03:20;;;;;;;17.05;6.53;;;;;;;6.04;100.00;103499.56;5111584;27;20051;-73
2022/01/18 05:05:50;;;;;;;26.33;6.25;;;;;;;6.03;100.00;103503.06;5112453;27;20039;-73
2022/01/18 05:08:17;;;;;;;25.15;6.18;;;;;;;6.06;100.00;103505.63;5110236;27;20135;-73
2022/01/18 05:10:50;;;;;;;25.90;5.72;;;;;;;6.07;100.00;103512.56;5110146;27;20047;-74
2022/01/18 05:13:31;;;;;;;19.23;5.68;;;;;;;6.08;100.00;103512.53;5108940;27;20066;-73
2022/01/18 05:16:09;;;;;;;19.75;5.60;;;;;;;6.13;100.00;103510.72;5112251;27;20417;-74
2022/01/18 05:21:28;;;;;;;26.95;4.93;;;;;;;6.08;100.00;103509.06;5121366;27;20043;-72
2022/01/18 05:23:54;;;;;;;14.63;4.07;;;;;;;6.12;100.00;103513.31;5119639;27;20039;-72
2022/01/18 05:26:22;;;;;;;18.23;5.38;;;;;;;6.06;100.00;103508.22;5119804;27;20161;-72
2022/01/18 05:28:49;;;;;;;19.83;5.80;;;;;;;6.03;100.00;103513.50;5108788;27;20043;-73
2022/01/18 05:31:16;;;;;;;24.35;4.97;;;;;;;5.98;100.00;103510.09;5110445;27;20975;-73
2022/01/18 05:33:42;;;;;;;18.45;6.20;;;;;;;6.03;100.00;103508.28;5105179;27;20078;-73
2022/01/18 05:36:09;;;;;;;19.33;5.70;;;;;;;5.97;100.00;103511.84;5106933;27;20055;-72
2022/01/18 05:38:40;;;;;;;19.85;4.47;;;;;;;5.96;100.00;103522.31;5106986;27;20070;-73
2022/01/18 05:41:14;;;;;;;14.63;5.03;;;;;;;5.91;100.00;103524.13;5092398;27;20438;-72
2022/01/18 05:43:41;;;;;;;12.07;5.38;;;;;;;5.87;100.00;103515.50;5110264;27;20131;-71
2022/01/18 05:46:08;;;;;;;21.83;5.00;;;;;;;5.91;100.00;103516.31;5108699;27;20054;-73
2022/01/18 05:48:34;;;;;;;18.25;5.80;;;;;;;5.90;100.00;103504.16;5111212;27;20047;-72
2022/01/18 05:51:01;;;;;;;14.38;5.68;;;;;;;5.90;100.00;103511.97;5110870;27;20100;-74
2022/01/18 05:53:28;;;;;;;28.50;5.55;;;;;;;5.90;100.00;103514.59;5111507;27;20042;-73
2022/01/18 05:55:56;;;;;;;11.00;4.82;;;;;;;5.88;100.00;103513.72;5109866;27;20035;-72
2022/01/18 05:58:22;;;;;;;12.00;4.55;;;;;;;5.89;100.00;103518.06;5107614;27;20076;-73
2022/01/18 06:00:52;;;;;;;12.50;4.97;;;;;;;5.87;100.00;103519.84;5093788;27;20047;-73
2022/01/18 06:03:27;;;;;;;28.10;6.40;;;;;;;5.84;100.00;103517.28;5108497;27;20042;-73
2022/01/18 06:08:38;;;;;;;9.65;4.03;;;;;;;5.87;100.00;103519.84;5111687;27;20039;-72
2022/01/18 06:11:06;;;;;;;12.82;4.97;;;;;;;5.91;100.00;103521.53;5109429;27;20043;-70
2022/01/18 06:13:33;;;;;;;19.92;4.97;;;;;;;5.98;100.00;103523.16;5112735;27;22267;-71
2022/01/18 06:16:00;;;;;;;21.90;5.15;;;;;;;5.94;100.00;103532.78;5108760;27;20113;-70
2022/01/18 06:18:27;;;;;;;11.18;5.88;;;;;;;5.94;100.00;103529.31;5108756;27;20048;-70
2022/01/18 06:20:54;;;;;;;11.15;3.88;;;;;;;5.92;100.00;103529.31;5111079;27;20055;-71
2022/01/18 06:23:21;;;;;;;35.33;6.53;;;;;;;5.86;100.00;103526.81;5112068;27;20047;-71
2022/01/18 06:25:48;;;;;;;15.68;4.53;;;;;;;5.90;100.00;103538.94;5113964;27;20074;-70
2022/01/18 06:28:16;;;;;;;11.77;4.55;;;;;;;5.95;100.00;103538.88;5114409;27;20289;-71
2022/01/18 06:30:42;;;;;;;12.18;5.75;;;;;;;5.95;100.00;103546.69;5112190;27;20039;-72
2022/01/18 06:33:09;;;;;;;18.27;6.25;;;;;;;5.94;100.00;103537.13;5111615;27;20117;-74
2022/01/18 06:35:36;;;;;;;29.67;5.53;;;;;;;5.92;100.00;103536.28;5095301;27;20053;-72
2022/01/18 06:38:03;;;;;;;15.23;5.85;;;;;;;5.97;100.00;103534.47;5111028;27;20051;-73
2022/01/18 06:40:31;;;;;;;23.90;5.88;;;;;;;5.95;100.00;103521.44;5115031;27;20040;-73
2022/01/18 06:42:57;;;;;;;13.63;5.57;;;;;;;5.94;100.00;103529.31;5098810;27;20051;-73
2022/01/18 06:45:26;;;;;;;19.85;6.70;;;;;;;5.94;100.00;103534.53;5113079;27;20047;-72
2022/01/18 06:47:52;;;;;;;15.57;6.43;;;;;;;5.99;100.00;103528.31;5117190;27;20039;-72
2022/01/18 06:50:19;;;;;;;20.27;6.45;;;;;;;6.01;100.00;103533.53;5124868;27;20068;-73
2022/01/18 06:52:46;;;;;;;16.00;6.53;;;;;;;6.05;100.00;103535.19;5130992;27;20035;-72
2022/01/18 06:55:14;;;;;;;34.22;6.68;;;;;;;6.10;100.00;103528.19;5129422;27;20074;-74
2022/01/18 06:57:41;;;;;;;22.52;5.80;;;;;;;6.03;100.00;103529.16;5095446;27;20039;-74
2022/01/18 07:00:09;;;;;;;17.88;4.18;;;;;;;6.06;100.00;103534.31;5112530;27;20101;-74
2022/01/18 07:02:37;;;;;;;22.25;7.13;;;;;;;6.02;100.00;103545.72;5090993;27;20039;-73
2022/01/18 07:05:04;;;;;;;21.67;6.63;;;;;;;5.99;100.00;103543.97;5092546;27;20080;-72
2022/01/18 07:07:31;;;;;;;32.55;7.18;;;;;;;6.01;100.00;103544.81;5110856;27;20039;-72
2022/01/18 07:09:57;;;;;;;19.27;6.57;;;;;;;5.99;100.00;103543.97;5115206;27;20047;-72
2022/01/18 07:12:25;;;;;;;35.25;6.05;;;;;;;5.98;100.00;103546.63;5099380;27;20058;-71
2022/01/18 07:14:52;;;;;;;28.98;5.90;;;;;;;5.95;100.00;103546.69;5104909;27;20046;-74
2022/01/18 07:17:24;;;;;;;37.45;6.90;;;;;;;5.87;100.00;103544.19;5114921;27;20111;-73
2022/01/18 07:19:52;;;;;;;14.77;4.47;;;;;;;5.90;100.00;103540.66;5104451;27;20043;-73
2022/01/18 07:22:18;;;;;;;17.73;5.10;;;;;;;5.88;100.00;103548.53;5116561;27;20035;-74
2022/01/18 07:24:45;;;;;;;9.02;4.53;;;;;;;5.84;100.00;103535.56;5126792;27;20040;-72
2022/01/18 07:27:15;;;;;;;41.28;6.80;;;;;;;5.89;100.00;103541.53;5119514;27;20032;-75
2022/01/18 07:29:43;;;;;;;13.80;5.35;;;;;;;5.95;100.00;103547.53;5126102;27;20056;-75
2022/01/18 07:32:11;;;;;;;16.77;5.65;;;;;;;5.98;100.00;103551.84;5119724;27;20486;-74
2022/01/18 07:34:41;;;;;;;34.55;7.03;;;;;;;6.00;100.00;103560.50;5121257;27;20066;-74
2022/01/18 07:37:10;;;;;;;14.85;7.32;;;;;;;5.95;100.00;103550.16;5126494;27;20071;-73
2022/01/18 07:39:36;;;;;;;16.58;5.28;;;;;;;5.99;100.00;103558.78;5121760;27;20497;-74
2022/01/18 07:42:03;;;;;;;18.08;5.30;;;;;;;6.07;100.00;103562.13;5122457;27;20051;-73
2022/01/18 07:44:30;;;;;;;16.38;5.00;;;;;;;6.06;100.00;103565.63;5101728;27;20126;-72
2022/01/18 07:46:57;;;;;;;22.73;5.53;;;;;;;6.14;100.00;103568.97;5122359;27;20153;-74
2022/01/18 07:49:24;;;;;;;26.48;6.55;;;;;;;6.24;100.00;103563.56;5125410;27;20051;-73
2022/01/18 07:51:50;;;;;;;20.45;6.30;;;;;;;6.26;100.00;103569.63;5125011;27;20047;-72
2022/01/18 07:54:21;;;;;;;22.95;6.10;;;;;;;6.32;100.00;103579.97;5130605;27;20051;-73
2022/01/18 07:56:49;;;;;;;43.28;6.50;;;;;;;6.37;100.00;103563.34;5132848;27;20126;-74
2022/01/18 07:59:15;;;;;;;16.75;7.28;;;;;;;6.38;100.00;103570.28;5146016;27;20036;-76
2022/01/18 08:01:42;;;;;;;15.18;5.88;;;;;;;6.42;100.00;103581.53;5138518;27;20162;-74
2022/01/18 08:04:09;;;;;;;17.10;5.75;;;;;;;6.37;100.00;103578.16;5122448;27;20035;-73
2022/01/18 08:06:36;;;;;;;28.23;6.18;;;;;;;6.38;100.00;103588.56;5125539;27;20071;-73
2022/01/18 08:09:04;;;;;;;18.25;6.15;;;;;;;6.43;100.00;103581.53;5095845;28;20047;-72
2022/01/18 08:11:32;;;;;;;19.42;7.00;;;;;;;6.46;100.00;103572.78;5098402;27;20097;-74
2022/01/18 08:14:00;;;;;;;17.40;5.50;;;;;;;6.48;100.00;103571.84;5130616;27;20046;-73
2022/01/18 08:19:17;;;;;;;18.80;6.93;;;;;;;6.59;100.00;103580.38;5109784;27;20069;-74
2022/01/18 08:21:44;;;;;;;26.02;7.32;;;;;;;6.66;100.00;103578.50;5117318;27;20515;-73
2022/01/18 08:24:11;;;;;;;24.75;6.28;;;;;;;6.75;100.00;103586.16;5126755;27;20233;-73
2022/01/18 08:26:38;;;;;;;20.27;6.07;;;;;;;6.82;100.00;103572.97;5119653;27;20050;-73
2022/01/18 08:29:05;;;;;;;22.83;6.80;;;;;;;6.95;99.94;103571.84;5123667;27;20092;-73
2022/01/18 08:31:32;;;;;;;24.15;6.05;;;;;;;7.04;99.33;103573.41;5106095;27;20395;-71
2022/01/18 08:33:58;;;;;;;38.75;9.27;;;;;;;7.12;98.66;103581.97;5120600;27;20036;-72
2022/01/18 08:36:25;;;;;;;22.35;6.22;;;;;;;7.16;99.22;103568.81;5119035;27;20058;-74
2022/01/18 08:38:53;;;;;;;28.30;7.70;;;;;;;7.20;98.64;103573.94;5120953;27;20430;-73
2022/01/18 08:41:20;;;;;;;29.27;7.80;;;;;;;7.21;98.02;103572.19;5122282;27;20329;-74
2022/01/18 08:43:49;;;;;;;25.88;8.85;;;;;;;7.22;98.19;103566.91;5103098;27;20039;-73
2022/01/18 08:46:16;;;;;;;34.88;7.47;;;;;;;7.23;97.79;103575.63;5115923;28;20045;-73
2022/01/18 08:48:43;;;;;;;20.77;6.80;;;;;;;7.26;98.20;103568.59;5120532;28;20044;-73
2022/01/18 08:51:10;;;;;;;24.35;6.47;;;;;;;7.34;97.98;103578.91;5120109;28;20055;-72
2022/01/18 08:53:37;;;;;;;16.30;6.65;;;;;;;7.38;97.26;103570.94;5133620;27;20066;-72
2022/01/18 08:56:05;;;;;;;32.22;8.50;;;;;;;7.45;97.56;103579.50;5128627;27;20081;-73
2022/01/18 08:58:32;;;;;;;28.42;8.52;;;;;;;7.57;96.86;103584.50;5120572;27;20288;-72
2022/01/18 09:01:00;;;;;;;36.40;10.30;;;;;;;7.66;96.51;103587.75;5129331;27;20046;-73
2022/01/18 09:03:26;;;;;;;21.25;9.23;;;;;;;7.72;95.06;103589.38;5105021;27;20047;-74
2022/01/18 09:05:53;;;;;;;45.40;9.65;;;;;;;7.81;95.56;103587.41;5117985;27;20053;-72
2022/01/18 09:08:21;;;;;;;61.70;10.75;;;;;;;7.84;94.99;103589.13;5123829;27;20117;-74
2022/01/18 09:10:48;;;;;;;39.33;7.90;;;;;;;7.85;94.80;103580.34;5108972;27;20031;-72
2022/01/18 09:13:15;;;;;;;26.40;7.53;;;;;;;7.82;94.70;103586.50;5139387;27;20046;-75
2022/01/18 09:15:42;;;;;;;33.85;8.43;;;;;;;7.85;95.38;103583.84;5124718;27;20075;-72
2022/01/18 09:18:09;;;;;;;28.25;7.30;;;;;;;7.93;94.47;103577.50;5119145;27;20043;-72
2022/01/18 09:20:39;;;;;;;33.00;6.47;;;;;;;7.95;94.08;103575.72;5120736;27;20129;-73
2022/01/18 09:23:05;;;;;;;29.70;7.68;;;;;;;8.01;93.89;103577.34;5124393;27;20043;-73
2022/01/18 09:25:34;;;;;;;27.83;7.43;;;;;;;8.07;94.15;103583.31;5124961;27;20042;-72
2022/01/18 09:28:01;;;;;;;13.70;6.60;;;;;;;8.15;93.31;103578.78;5120447;27;20043;-71
2022/01/18 09:30:30;;;;;;;21.58;7.65;;;;;;;8.18;93.33;103576.06;5121897;27;20136;-74
2022/01/18 09:32:59;;;;;;;31.73;8.10;;;;;;;8.20;93.17;103584.75;5125776;27;20122;-73
2022/01/18 09:35:28;;;;;;;33.08;7.45;;;;;;;8.28;92.97;103585.41;5120614;27;20066;-73
2022/01/18 09:37:54;;;;;;;24.58;8.38;;;;;;;8.38;92.25;103580.81;5124021;27;20128;-73
2022/01/18 09:40:23;;;;;;;26.48;7.35;;;;;;;8.38;92.03;103589.53;5122110;27;20041;-73
2022/01/18 09:42:54;;;;;;;21.90;6.97;;;;;;;8.36;92.12;103590.47;5106526;27;20141;-73
2022/01/18 09:45:21;;;;;;;25.33;5.93;;;;;;;8.41;92.33;103592.06;5120560;27;20190;-73
2022/01/18 09:47:49;;;;;;;33.17;7.78;;;;;;;8.63;91.31;103588.00;5103305;27;20130;-73
2022/01/18 09:50:21;;;;;;;40.58;9.20;;;;;;;8.83;90.39;103583.09;5118731;27;20050;-72
2022/01/18 09:52:53;;;;;;;25.88;9.02;;;;;;;9.03;90.46;103583.41;5124103;27;20043;-73
2022/01/18 09:55:20;;;;;;;30.83;7.28;;;;;;;9.28;89.63;103589.69;5127813;27;20144;-75
2022/01/18 09:57:47;;;;;;;18.90;6.85;;;;;;;9.33;88.49;103600.88;5123947;27;20046;-72
2022/01/18 10:00:14;;;;;;;31.05;8.90;;;;;;;9.30;88.64;103601.84;5124060;27;20476;-74
2022/01/18 10:02:40;;;;;;;14.48;6.82;;;;;;;9.12;89.30;103601.50;5120660;27;20051;-72
2022/01/18 10:05:23;;;;;;;14.60;7.38;;;;;;;9.09;89.93;103604.22;5119018;27;20139;-72
2022/01/18 10:08:15;;;;;;;21.73;6.95;;;;;;;9.25;89.41;103602.88;5119209;27;20047;-72
2022/01/18 10:10:43;;;;;;;20.88;8.30;;;;;;;9.36;88.51;103604.28;5118618;27;20053;-75
2022/01/18 10:13:18;;;;;;;38.78;8.20;;;;;;;9.47;88.62;103602.22;5123422;27;20042;-73
2022/01/18 10:16:02;;;;;;;33.10;6.60;;;;;;;9.48;87.75;103597.84;5126494;27;20127;-72
2022/01/18 10:18:40;;;;;;;22.95;6.88;;;;;;;9.37;88.09;103599.91;5133433;27;20031;-73
2022/01/18 10:21:08;;;;;;;15.65;6.00;;;;;;;9.16;88.70;103605.75;5125395;27;20043;-73
2022/01/18 10:23:37;;;;;;;28.00;7.93;;;;;;;9.25;89.05;103606.38;5128322;27;20050;-74
2022/01/18 10:26:18;;;;;;;32.40;8.30;;;;;;;9.44;88.15;103598.81;5118007;27;20047;-73
2022/01/18 10:28:45;;;;;;;19.33;7.88;;;;;;;9.51;87.66;103605.59;5128684;27;20125;-73
2022/01/18 10:31:27;;;;;;;23.10;7.63;;;;;;;9.66;87.04;103596.38;5121536;27;20049;-72
2022/01/18 10:34:28;;;;;;;12.48;4.80;;;;;;;9.57;86.60;103583.53;5142079;27;20404;-73
2022/01/18 10:37:01;;;;;;;18.73;6.47;;;;;;;9.55;87.55;103592.34;5150813;27;20022;-73
2022/01/18 10:39:33;;;;;;;25.00;8.18;;;;;;;9.35;87.16;103585.97;5146031;27;20087;-74
2022/01/18 10:42:01;;;;;;;16.17;7.18;;;;;;;9.31;88.46;103589.59;5141307;27;20100;-74
2022/01/18 10:44:31;;;;;;;15.80;6.95;;;;;;;9.38;88.52;103584.13;5159178;27;20049;-74
2022/01/18 10:46:59;;;;;;;16.73;7.20;;;;;;;9.30;88.35;103593.13;5135452;27;20055;-73
2022/01/18 10:49:31;;;;;;;25.00;8.88;;;;;;;9.50;89.21;103590.75;5130639;27;20057;-72
2022/01/18 10:51:59;;;;;;;;;;;;;;;9.74;87.55;103577.78;5126045;27;20436;-73
2022/01/18 10:54:40;;;;;;;15.15;5.82;;;;;;;9.94;87.13;103578.88;5124607;27;19919;-71
2022/01/18 10:57:07;;;;;;;23.05;7.28;;;;;;;9.89;85.87;103572.03;5120668;27;20044;-74
2022/01/18 10:59:37;;;;;;;19.48;7.25;;;;;;;9.92;85.51;103564.91;5122457;27;20486;-74
2022/01/18 11:02:10;;;;;;;31.42;8.18;;;;;;;9.96;85.75;103571.81;5100372;27;20055;-74
2022/01/18 11:04:38;;;;;;;16.50;7.03;;;;;;;9.87;85.40;103569.47;5104377;27;20041;-74
2022/01/18 11:07:05;;;;;;;23.70;9.55;;;;;;;9.71;86.37;103560.34;5123976;27;20920;-73
2022/01/18 11:09:32;;;;;;;13.77;6.07;;;;;;;9.59;87.38;103570.38;5127061;27;20043;-72
2022/01/18 11:12:01;;;;;;;22.58;5.57;;;;;;;9.39;86.58;103564.00;5133216;27;20122;-74
2022/01/18 11:14:29;;;;;;;14.40;7.30;;;;;;;9.37;87.35;103560.56;5122402;27;20051;-72
2022/01/18 11:16:58;;;;;;;33.67;7.95;;;;;;;9.29;87.63;103552.06;5131265;27;20047;-72
2022/01/18 11:19:34;;;;;;;20.88;7.55;;;;;;;9.20;88.83;103550.53;5123086;27;20130;-73
2022/01/18 11:22:03;;;;;;;13.13;7.25;;;;;;;9.28;89.20;103556.44;5130117;27;20050;-74
2022/01/18 11:24:31;;;;;;;18.67;8.65;;;;;;;9.33;88.26;103557.16;5122617;27;20047;-73
2022/01/18 11:26:59;;;;;;;18.17;7.93;;;;;;;9.55;88.67;103550.38;5129918;27;20043;-73
2022/01/18 11:29:29;;;;;;;19.08;8.98;;;;;;;9.81;87.27;103539.91;5121462;27;20042;-75
2022/01/18 11:31:56;;;;;;;19.92;8.23;;;;;;;10.01;86.18;103548.91;5118880;27;20068;-76
2022/01/18 11:34:29;;;;;;;19.58;8.35;;;;;;;10.19;84.89;103548.31;5119941;27;20149;-73
2022/01/18 11:37:08;;;;;;;17.25;7.65;;;;;;;10.21;83.81;103540.38;5125114;27;20053;-74
2022/01/18 11:39:35;;;;;;;16.70;7.60;;;;;;;10.32;84.10;103539.09;5119259;27;20046;-74
2022/01/18 11:42:10;;;;;;;18.38;7.07;;;;;;;10.40;83.16;103537.06;5122962;27;20081;-74
2022/01/18 11:44:38;;;;;;;17.15;6.72;;;;;;;10.39;84.10;103535.34;5119785;27;20046;-76
2022/01/18 11:47:05;;;;;;;29.05;7.93;;;;;;;10.58;82.65;103525.91;5124117;27;20055;-75
2022/01/18 11:49:34;;;;;;;25.85;7.88;;;;;;;10.65;81.81;103520.41;5119657;27;20046;-73
2022/01/18 11:52:04;;;;;;;16.23;6.78;;;;;;;10.55;81.38;103532.16;5112977;27;20051;-73
2022/01/18 11:54:40;;;;;;;20.90;7.90;;;;;;;10.54;81.71;103524.31;5126371;27;20101;-74
2022/01/18 11:57:35;;;;;;;21.02;6.78;;;;;;;10.67;82.39;103529.06;5127362;27;20045;-73
2022/01/18 12:00:22;;;;;;;13.73;7.28;;;;;;;10.66;80.56;103518.63;5100038;27;20707;-74
2022/01/18 12:03:16;;;;;;;22.27;6.40;;;;;;;10.63;81.60;103518.72;5121274;27;20043;-72
2022/01/18 12:05:43;;;;;;;27.52;8.65;;;;;;;10.76;81.63;103520.00;5100118;27;20084;-73
2022/01/18 12:08:10;;;;;;;19.83;7.05;;;;;;;10.46;81.46;103521.09;5104230;28;20047;-72
2022/01/18 12:10:48;;;;;;;19.08;7.35;;;;;;;10.23;83.72;103523.63;5119529;27;20104;-74
2022/01/18 12:13:36;;;;;;;22.67;8.00;;;;;;;10.28;82.34;103527.00;5127773;27;20046;-72
2022/01/18 12:16:10;;;;;;;17.58;7.68;;;;;;;10.16;81.82;103521.28;5101699;27;20082;-74